sensor_id;sensor_type;location;lat;lon;timestamp;P1;durP1;ratioP1;P2;durP2;ratioP2
6463;SDS011;3265;42.694;23.282;2023-05-07T00:02:14;28.33;;;19.97;;
6463;SDS011;3265;42.694;23.282;2023-05-07T00:04:41;34.83;;;19.53;;
6463;SDS011;3265;42.694;23.282;2023-05-07T00:07:15;28.20;;;18.03;;
6463;SDS011;3265;42.694;23.282;2023-05-07T00:09:41;30.00;;;17.47;;
6463;SDS011;3265;42.694;23.282;2023-05-07T00:12:10;23.90;;;16.83;;
6463;SDS011;3265;42.694;23.282;2023-05-07T00:14:37;25.57;;;17.13;;
6463;SDS011;3265;42.694;23.282;2023-05-07T00:17:03;24.40;;;16.27;;
6463;SDS011;3265;42.694;23.282;2023-05-07T00:19:30;28.00;;;17.53;;
6463;SDS011;3265;42.694;23.282;2023-05-07T00:21:57;27.57;;;17.20;;
6463;SDS011;3265;42.694;23.282;2023-05-07T00:24:24;26.97;;;15.60;;
6463;SDS011;3265;42.694;23.282;2023-05-07T00:26:51;19.77;;;13.23;;
6463;SDS011;3265;42.694;23.282;2023-05-07T00:29:19;24.57;;;14.33;;
6463;SDS011;3265;42.694;23.282;2023-05-07T00:31:46;27.83;;;14.67;;
6463;SDS011;3265;42.694;23.282;2023-05-07T00:34:15;21.17;;;13.90;;
6463;SDS011;3265;42.694;23.282;2023-05-07T00:36:41;27.23;;;15.07;;
6463;SDS011;3265;42.694;23.282;2023-05-07T00:39:08;19.23;;;13.20;;
6463;SDS011;3265;42.694;23.282;2023-05-07T00:41:35;14.70;;;11.00;;
6463;SDS011;3265;42.694;23.282;2023-05-07T00:44:02;22.13;;;13.60;;
6463;SDS011;3265;42.694;23.282;2023-05-07T00:46:30;19.63;;;13.03;;
6463;SDS011;3265;42.694;23.282;2023-05-07T00:48:58;20.00;;;13.20;;
6463;SDS011;3265;42.694;23.282;2023-05-07T00:51:26;21.57;;;13.53;;
6463;SDS011;3265;42.694;23.282;2023-05-07T00:53:53;18.83;;;13.87;;
6463;SDS011;3265;42.694;23.282;2023-05-07T00:56:20;22.90;;;13.83;;
6463;SDS011;3265;42.694;23.282;2023-05-07T00:58:47;21.50;;;13.83;;
6463;SDS011;3265;42.694;23.282;2023-05-07T01:01:14;20.37;;;13.37;;
6463;SDS011;3265;42.694;23.282;2023-05-07T01:03:43;20.50;;;13.00;;
6463;SDS011;3265;42.694;23.282;2023-05-07T01:06:10;19.30;;;13.50;;
6463;SDS011;3265;42.694;23.282;2023-05-07T01:08:38;18.53;;;13.17;;
6463;SDS011;3265;42.694;23.282;2023-05-07T01:11:06;18.90;;;12.23;;
6463;SDS011;3265;42.694;23.282;2023-05-07T01:13:33;18.27;;;12.40;;
6463;SDS011;3265;42.694;23.282;2023-05-07T01:16:00;19.23;;;11.63;;
6463;SDS011;3265;42.694;23.282;2023-05-07T01:18:27;21.33;;;13.30;;
6463;SDS011;3265;42.694;23.282;2023-05-07T01:20:56;21.00;;;13.00;;
6463;SDS011;3265;42.694;23.282;2023-05-07T01:23:26;20.03;;;12.70;;
6463;SDS011;3265;42.694;23.282;2023-05-07T01:25:54;19.07;;;12.57;;
6463;SDS011;3265;42.694;23.282;2023-05-07T01:28:21;20.37;;;12.53;;
6463;SDS011;3265;42.694;23.282;2023-05-07T01:30:48;24.50;;;13.07;;
6463;SDS011;3265;42.694;23.282;2023-05-07T01:33:31;18.90;;;12.40;;
6463;SDS011;3265;42.694;23.282;2023-05-07T01:36:01;19.70;;;12.53;;
6463;SDS011;3265;42.694;23.282;2023-05-07T01:38:32;15.83;;;11.57;;
6463;SDS011;3265;42.694;23.282;2023-05-07T01:41:00;18.37;;;12.10;;
6463;SDS011;3265;42.694;23.282;2023-05-07T01:43:27;18.83;;;11.67;;
6463;SDS011;3265;42.694;23.282;2023-05-07T01:45:55;17.10;;;11.43;;
6463;SDS011;3265;42.694;23.282;2023-05-07T01:48:23;16.30;;;11.17;;
6463;SDS011;3265;42.694;23.282;2023-05-07T01:50:50;13.93;;;10.73;;
6463;SDS011;3265;42.694;23.282;2023-05-07T01:53:18;20.13;;;11.77;;
6463;SDS011;3265;42.694;23.282;2023-05-07T01:55:46;14.93;;;10.20;;
6463;SDS011;3265;42.694;23.282;2023-05-07T01:58:13;21.00;;;11.37;;
6463;SDS011;3265;42.694;23.282;2023-05-07T02:00:40;18.67;;;11.03;;
6463;SDS011;3265;42.694;23.282;2023-05-07T02:03:07;16.37;;;11.40;;
6463;SDS011;3265;42.694;23.282;2023-05-07T02:05:34;15.97;;;11.50;;
6463;SDS011;3265;42.694;23.282;2023-05-07T02:08:01;20.00;;;13.50;;
6463;SDS011;3265;42.694;23.282;2023-05-07T02:10:27;21.73;;;14.10;;
6463;SDS011;3265;42.694;23.282;2023-05-07T02:12:56;21.57;;;13.50;;
6463;SDS011;3265;42.694;23.282;2023-05-07T02:15:22;22.23;;;13.93;;
6463;SDS011;3265;42.694;23.282;2023-05-07T02:17:59;27.90;;;15.80;;
6463;SDS011;3265;42.694;23.282;2023-05-07T02:20:27;27.73;;;17.83;;
6463;SDS011;3265;42.694;23.282;2023-05-07T02:22:53;24.47;;;15.93;;
6463;SDS011;3265;42.694;23.282;2023-05-07T02:25:20;25.50;;;15.37;;
6463;SDS011;3265;42.694;23.282;2023-05-07T02:27:47;22.73;;;14.57;;
6463;SDS011;3265;42.694;23.282;2023-05-07T02:30:15;24.23;;;14.13;;
6463;SDS011;3265;42.694;23.282;2023-05-07T02:32:42;20.57;;;13.90;;
6463;SDS011;3265;42.694;23.282;2023-05-07T02:35:09;22.47;;;13.83;;
6463;SDS011;3265;42.694;23.282;2023-05-07T02:37:36;21.07;;;13.53;;
6463;SDS011;3265;42.694;23.282;2023-05-07T02:40:03;21.60;;;13.53;;
6463;SDS011;3265;42.694;23.282;2023-05-07T02:42:30;22.07;;;13.80;;
6463;SDS011;3265;42.694;23.282;2023-05-07T02:44:57;20.83;;;13.30;;
6463;SDS011;3265;42.694;23.282;2023-05-07T02:47:25;16.80;;;12.47;;
6463;SDS011;3265;42.694;23.282;2023-05-07T02:49:53;17.73;;;12.73;;
6463;SDS011;3265;42.694;23.282;2023-05-07T02:52:20;22.13;;;13.37;;
6463;SDS011;3265;42.694;23.282;2023-05-07T02:54:47;19.13;;;12.50;;
6463;SDS011;3265;42.694;23.282;2023-05-07T02:57:13;22.87;;;12.87;;
6463;SDS011;3265;42.694;23.282;2023-05-07T02:59:41;22.23;;;13.27;;
6463;SDS011;3265;42.694;23.282;2023-05-07T03:02:08;21.50;;;13.63;;
6463;SDS011;3265;42.694;23.282;2023-05-07T03:04:36;18.50;;;12.97;;
6463;SDS011;3265;42.694;23.282;2023-05-07T03:07:04;20.47;;;13.23;;
6463;SDS011;3265;42.694;23.282;2023-05-07T03:09:31;19.50;;;13.27;;
6463;SDS011;3265;42.694;23.282;2023-05-07T03:11:57;17.67;;;12.60;;
6463;SDS011;3265;42.694;23.282;2023-05-07T03:14:24;23.03;;;12.50;;
6463;SDS011;3265;42.694;23.282;2023-05-07T03:16:51;21.77;;;12.73;;
6463;SDS011;3265;42.694;23.282;2023-05-07T03:19:18;20.43;;;12.67;;
6463;SDS011;3265;42.694;23.282;2023-05-07T03:21:46;18.17;;;11.97;;
6463;SDS011;3265;42.694;23.282;2023-05-07T03:24:13;19.77;;;12.57;;
6463;SDS011;3265;42.694;23.282;2023-05-07T03:26:39;17.93;;;12.73;;
6463;SDS011;3265;42.694;23.282;2023-05-07T03:29:06;19.97;;;12.33;;
6463;SDS011;3265;42.694;23.282;2023-05-07T03:31:33;21.67;;;13.97;;
6463;SDS011;3265;42.694;23.282;2023-05-07T03:34:00;22.27;;;13.70;;
6463;SDS011;3265;42.694;23.282;2023-05-07T03:36:26;23.23;;;13.77;;
6463;SDS011;3265;42.694;23.282;2023-05-07T03:38:55;23.47;;;14.60;;
6463;SDS011;3265;42.694;23.282;2023-05-07T03:41:21;20.27;;;13.80;;
6463;SDS011;3265;42.694;23.282;2023-05-07T03:43:48;24.90;;;14.23;;
6463;SDS011;3265;42.694;23.282;2023-05-07T03:46:15;22.30;;;14.47;;
6463;SDS011;3265;42.694;23.282;2023-05-07T03:48:42;21.73;;;14.23;;
6463;SDS011;3265;42.694;23.282;2023-05-07T03:51:09;21.33;;;14.20;;
6463;SDS011;3265;42.694;23.282;2023-05-07T03:53:35;22.50;;;13.63;;
6463;SDS011;3265;42.694;23.282;2023-05-07T03:56:04;20.13;;;13.73;;
6463;SDS011;3265;42.694;23.282;2023-05-07T03:58:31;19.67;;;13.73;;
6463;SDS011;3265;42.694;23.282;2023-05-07T04:00:57;19.13;;;13.53;;
6463;SDS011;3265;42.694;23.282;2023-05-07T04:03:24;23.07;;;14.30;;
6463;SDS011;3265;42.694;23.282;2023-05-07T04:05:51;31.10;;;13.97;;
6463;SDS011;3265;42.694;23.282;2023-05-07T04:08:18;24.17;;;14.20;;
6463;SDS011;3265;42.694;23.282;2023-05-07T04:10:44;23.47;;;14.23;;
6463;SDS011;3265;42.694;23.282;2023-05-07T04:13:13;24.37;;;14.07;;
6463;SDS011;3265;42.694;23.282;2023-05-07T04:15:39;20.80;;;14.53;;
6463;SDS011;3265;42.694;23.282;2023-05-07T04:18:06;21.40;;;12.57;;
6463;SDS011;3265;42.694;23.282;2023-05-07T04:20:33;20.37;;;12.07;;
6463;SDS011;3265;42.694;23.282;2023-05-07T04:23:01;18.30;;;12.27;;
6463;SDS011;3265;42.694;23.282;2023-05-07T04:25:28;17.20;;;11.57;;
6463;SDS011;3265;42.694;23.282;2023-05-07T04:27:55;17.27;;;12.23;;
6463;SDS011;3265;42.694;23.282;2023-05-07T04:30:23;22.07;;;12.20;;
6463;SDS011;3265;42.694;23.282;2023-05-07T04:32:51;18.07;;;12.83;;
6463;SDS011;3265;42.694;23.282;2023-05-07T04:35:18;19.30;;;12.83;;
6463;SDS011;3265;42.694;23.282;2023-05-07T04:37:45;19.70;;;13.33;;
6463;SDS011;3265;42.694;23.282;2023-05-07T04:40:13;20.90;;;13.80;;
6463;SDS011;3265;42.694;23.282;2023-05-07T04:42:42;20.60;;;13.67;;
6463;SDS011;3265;42.694;23.282;2023-05-07T04:45:09;24.63;;;14.70;;
6463;SDS011;3265;42.694;23.282;2023-05-07T04:51:18;19.97;;;12.97;;
6463;SDS011;3265;42.694;23.282;2023-05-07T04:53:49;20.90;;;13.93;;
6463;SDS011;3265;42.694;23.282;2023-05-07T04:56:42;18.90;;;13.27;;
6463;SDS011;3265;42.694;23.282;2023-05-07T04:59:09;19.03;;;12.80;;
6463;SDS011;3265;42.694;23.282;2023-05-07T05:01:35;22.27;;;13.40;;
6463;SDS011;3265;42.694;23.282;2023-05-07T05:04:02;18.77;;;13.07;;
6463;SDS011;3265;42.694;23.282;2023-05-07T05:06:30;20.80;;;13.60;;
6463;SDS011;3265;42.694;23.282;2023-05-07T05:08:57;20.67;;;13.47;;
6463;SDS011;3265;42.694;23.282;2023-05-07T05:11:27;22.13;;;13.17;;
6463;SDS011;3265;42.694;23.282;2023-05-07T05:13:53;21.10;;;13.30;;
6463;SDS011;3265;42.694;23.282;2023-05-07T05:16:20;17.73;;;12.60;;
6463;SDS011;3265;42.694;23.282;2023-05-07T05:18:47;21.00;;;13.43;;
6463;SDS011;3265;42.694;23.282;2023-05-07T05:21:14;19.87;;;13.33;;
6463;SDS011;3265;42.694;23.282;2023-05-07T05:23:42;19.27;;;13.30;;
6463;SDS011;3265;42.694;23.282;2023-05-07T05:26:09;17.37;;;13.00;;
6463;SDS011;3265;42.694;23.282;2023-05-07T05:28:36;20.97;;;13.80;;
6463;SDS011;3265;42.694;23.282;2023-05-07T05:31:02;19.80;;;13.60;;
6463;SDS011;3265;42.694;23.282;2023-05-07T05:33:29;23.77;;;14.50;;
6463;SDS011;3265;42.694;23.282;2023-05-07T05:35:56;20.63;;;13.47;;
6463;SDS011;3265;42.694;23.282;2023-05-07T05:38:22;21.30;;;13.53;;
6463;SDS011;3265;42.694;23.282;2023-05-07T05:40:52;20.63;;;12.93;;
6463;SDS011;3265;42.694;23.282;2023-05-07T05:43:19;18.83;;;13.50;;
6463;SDS011;3265;42.694;23.282;2023-05-07T05:45:45;20.83;;;13.23;;
6463;SDS011;3265;42.694;23.282;2023-05-07T05:48:12;19.83;;;13.53;;
6463;SDS011;3265;42.694;23.282;2023-05-07T05:50:39;21.00;;;14.33;;
6463;SDS011;3265;42.694;23.282;2023-05-07T05:53:06;25.87;;;17.13;;
6463;SDS011;3265;42.694;23.282;2023-05-07T05:55:32;17.60;;;13.00;;
6463;SDS011;3265;42.694;23.282;2023-05-07T05:58:01;22.83;;;12.43;;
6463;SDS011;3265;42.694;23.282;2023-05-07T06:00:28;18.20;;;12.40;;
6463;SDS011;3265;42.694;23.282;2023-05-07T06:02:55;20.07;;;12.20;;
6463;SDS011;3265;42.694;23.282;2023-05-07T06:05:22;17.43;;;12.23;;
6463;SDS011;3265;42.694;23.282;2023-05-07T06:07:49;19.63;;;13.53;;
6463;SDS011;3265;42.694;23.282;2023-05-07T06:10:15;32.07;;;19.20;;
6463;SDS011;3265;42.694;23.282;2023-05-07T06:12:42;31.00;;;14.43;;
6463;SDS011;3265;42.694;23.282;2023-05-07T06:15:11;16.83;;;12.10;;
6463;SDS011;3265;42.694;23.282;2023-05-07T06:17:38;18.57;;;12.30;;
6463;SDS011;3265;42.694;23.282;2023-05-07T06:20:05;15.63;;;12.40;;
6463;SDS011;3265;42.694;23.282;2023-05-07T06:22:33;20.80;;;11.97;;
6463;SDS011;3265;42.694;23.282;2023-05-07T06:24:59;22.37;;;12.50;;
6463;SDS011;3265;42.694;23.282;2023-05-07T06:27:26;17.47;;;11.40;;
6463;SDS011;3265;42.694;23.282;2023-05-07T06:29:53;18.43;;;12.23;;
6463;SDS011;3265;42.694;23.282;2023-05-07T06:32:21;15.73;;;11.13;;
6463;SDS011;3265;42.694;23.282;2023-05-07T06:34:48;16.17;;;11.70;;
6463;SDS011;3265;42.694;23.282;2023-05-07T06:37:15;19.03;;;12.57;;
6463;SDS011;3265;42.694;23.282;2023-05-07T06:39:42;16.33;;;12.10;;
6463;SDS011;3265;42.694;23.282;2023-05-07T06:42:08;18.07;;;11.97;;
6463;SDS011;3265;42.694;23.282;2023-05-07T06:44:35;18.83;;;12.33;;
6463;SDS011;3265;42.694;23.282;2023-05-07T06:47:02;19.73;;;12.63;;
6463;SDS011;3265;42.694;23.282;2023-05-07T06:49:31;18.57;;;11.83;;
6463;SDS011;3265;42.694;23.282;2023-05-07T06:51:58;14.47;;;11.10;;
6463;SDS011;3265;42.694;23.282;2023-05-07T06:54:25;17.87;;;11.33;;
6463;SDS011;3265;42.694;23.282;2023-05-07T06:56:52;16.63;;;11.53;;
6463;SDS011;3265;42.694;23.282;2023-05-07T06:59:18;16.47;;;11.20;;
6463;SDS011;3265;42.694;23.282;2023-05-07T07:01:45;20.23;;;12.03;;
6463;SDS011;3265;42.694;23.282;2023-05-07T07:04:12;16.83;;;10.90;;
6463;SDS011;3265;42.694;23.282;2023-05-07T07:06:40;19.10;;;11.07;;
6463;SDS011;3265;42.694;23.282;2023-05-07T07:09:07;18.80;;;11.77;;
6463;SDS011;3265;42.694;23.282;2023-05-07T07:11:34;15.97;;;10.77;;
6463;SDS011;3265;42.694;23.282;2023-05-07T07:14:01;14.13;;;10.77;;
6463;SDS011;3265;42.694;23.282;2023-05-07T07:16:28;18.37;;;11.33;;
6463;SDS011;3265;42.694;23.282;2023-05-07T07:18:54;17.47;;;10.73;;
6463;SDS011;3265;42.694;23.282;2023-05-07T07:21:21;15.87;;;11.73;;
6463;SDS011;3265;42.694;23.282;2023-05-07T07:23:49;14.63;;;10.17;;
6463;SDS011;3265;42.694;23.282;2023-05-07T07:26:16;19.60;;;11.03;;
6463;SDS011;3265;42.694;23.282;2023-05-07T07:28:44;15.60;;;10.33;;
6463;SDS011;3265;42.694;23.282;2023-05-07T07:31:11;15.63;;;10.60;;
6463;SDS011;3265;42.694;23.282;2023-05-07T07:33:38;18.17;;;10.50;;
6463;SDS011;3265;42.694;23.282;2023-05-07T07:36:05;15.43;;;10.87;;
6463;SDS011;3265;42.694;23.282;2023-05-07T07:38:32;13.63;;;10.43;;
6463;SDS011;3265;42.694;23.282;2023-05-07T07:41:01;22.20;;;11.57;;
6463;SDS011;3265;42.694;23.282;2023-05-07T07:43:28;17.77;;;10.80;;
6463;SDS011;3265;42.694;23.282;2023-05-07T07:45:55;14.97;;;10.47;;
6463;SDS011;3265;42.694;23.282;2023-05-07T07:48:22;15.70;;;9.90;;
6463;SDS011;3265;42.694;23.282;2023-05-07T07:50:48;14.70;;;9.70;;
6463;SDS011;3265;42.694;23.282;2023-05-07T07:53:16;15.87;;;10.47;;
6463;SDS011;3265;42.694;23.282;2023-05-07T07:55:43;12.63;;;9.03;;
6463;SDS011;3265;42.694;23.282;2023-05-07T07:58:11;17.00;;;10.83;;
6463;SDS011;3265;42.694;23.282;2023-05-07T08:00:38;20.17;;;11.40;;
6463;SDS011;3265;42.694;23.282;2023-05-07T08:03:05;19.90;;;11.33;;
6463;SDS011;3265;42.694;23.282;2023-05-07T08:05:32;15.13;;;11.00;;
6463;SDS011;3265;42.694;23.282;2023-05-07T08:07:59;16.67;;;10.90;;
6463;SDS011;3265;42.694;23.282;2023-05-07T08:10:26;15.50;;;10.53;;
6463;SDS011;3265;42.694;23.282;2023-05-07T08:12:52;13.57;;;10.17;;
6463;SDS011;3265;42.694;23.282;2023-05-07T08:15:20;16.43;;;10.90;;
6463;SDS011;3265;42.694;23.282;2023-05-07T08:17:47;14.93;;;10.60;;
6463;SDS011;3265;42.694;23.282;2023-05-07T08:20:14;13.93;;;10.10;;
6463;SDS011;3265;42.694;23.282;2023-05-07T08:22:41;14.37;;;9.97;;
6463;SDS011;3265;42.694;23.282;2023-05-07T08:25:08;13.50;;;9.67;;
6463;SDS011;3265;42.694;23.282;2023-05-07T08:27:35;12.33;;;9.53;;
6463;SDS011;3265;42.694;23.282;2023-05-07T08:30:02;15.70;;;9.10;;
6463;SDS011;3265;42.694;23.282;2023-05-07T08:32:31;15.03;;;9.27;;
6463;SDS011;3265;42.694;23.282;2023-05-07T08:34:59;12.90;;;8.60;;
6463;SDS011;3265;42.694;23.282;2023-05-07T08:37:26;12.93;;;8.40;;
6463;SDS011;3265;42.694;23.282;2023-05-07T08:39:53;13.10;;;9.27;;
6463;SDS011;3265;42.694;23.282;2023-05-07T08:42:20;13.40;;;9.40;;
6463;SDS011;3265;42.694;23.282;2023-05-07T08:44:49;15.00;;;9.93;;
6463;SDS011;3265;42.694;23.282;2023-05-07T08:47:18;20.25;;;8.95;;
6463;SDS011;3265;42.694;23.282;2023-05-07T08:49:47;14.20;;;8.88;;
6463;SDS011;3265;42.694;23.282;2023-05-07T08:52:14;17.77;;;8.40;;
6463;SDS011;3265;42.694;23.282;2023-05-07T08:54:41;15.05;;;8.60;;
6463;SDS011;3265;42.694;23.282;2023-05-07T08:57:09;13.93;;;8.63;;
6463;SDS011;3265;42.694;23.282;2023-05-07T08:59:35;18.17;;;8.45;;
6463;SDS011;3265;42.694;23.282;2023-05-07T09:02:03;15.05;;;8.77;;
6463;SDS011;3265;42.694;23.282;2023-05-07T09:04:30;12.48;;;7.60;;
6463;SDS011;3265;42.694;23.282;2023-05-07T09:06:59;11.30;;;8.73;;
6463;SDS011;3265;42.694;23.282;2023-05-07T09:09:31;12.13;;;8.32;;
6463;SDS011;3265;42.694;23.282;2023-05-07T09:11:59;10.98;;;8.00;;
6463;SDS011;3265;42.694;23.282;2023-05-07T09:14:27;17.08;;;7.72;;
6463;SDS011;3265;42.694;23.282;2023-05-07T09:16:54;10.73;;;7.90;;
6463;SDS011;3265;42.694;23.282;2023-05-07T09:19:22;12.07;;;7.80;;
6463;SDS011;3265;42.694;23.282;2023-05-07T09:21:49;10.52;;;7.60;;
6463;SDS011;3265;42.694;23.282;2023-05-07T09:24:17;9.23;;;7.32;;
6463;SDS011;3265;42.694;23.282;2023-05-07T09:26:44;13.30;;;7.07;;
6463;SDS011;3265;42.694;23.282;2023-05-07T09:29:11;14.90;;;6.93;;
6463;SDS011;3265;42.694;23.282;2023-05-07T09:31:38;9.88;;;6.80;;
6463;SDS011;3265;42.694;23.282;2023-05-07T09:34:05;12.98;;;7.10;;
6463;SDS011;3265;42.694;23.282;2023-05-07T09:36:33;16.25;;;7.22;;
6463;SDS011;3265;42.694;23.282;2023-05-07T09:39:00;13.73;;;6.88;;
6463;SDS011;3265;42.694;23.282;2023-05-07T09:41:28;12.38;;;6.85;;
6463;SDS011;3265;42.694;23.282;2023-05-07T09:43:56;10.00;;;6.50;;
6463;SDS011;3265;42.694;23.282;2023-05-07T09:46:27;9.93;;;6.90;;
6463;SDS011;3265;42.694;23.282;2023-05-07T09:48:56;9.90;;;6.15;;
6463;SDS011;3265;42.694;23.282;2023-05-07T09:51:25;8.82;;;6.18;;
6463;SDS011;3265;42.694;23.282;2023-05-07T09:53:56;6.95;;;5.85;;
6463;SDS011;3265;42.694;23.282;2023-05-07T09:56:25;9.88;;;5.50;;
6463;SDS011;3265;42.694;23.282;2023-05-07T09:58:56;7.65;;;5.38;;
6463;SDS011;3265;42.694;23.282;2023-05-07T10:01:25;7.75;;;5.43;;
6463;SDS011;3265;42.694;23.282;2023-05-07T10:03:53;9.88;;;5.00;;
6463;SDS011;3265;42.694;23.282;2023-05-07T10:06:22;5.90;;;5.05;;
6463;SDS011;3265;42.694;23.282;2023-05-07T10:08:50;8.25;;;4.97;;
6463;SDS011;3265;42.694;23.282;2023-05-07T10:11:17;8.88;;;5.25;;
6463;SDS011;3265;42.694;23.282;2023-05-07T10:13:45;8.35;;;5.40;;
6463;SDS011;3265;42.694;23.282;2023-05-07T10:16:14;8.70;;;5.00;;
6463;SDS011;3265;42.694;23.282;2023-05-07T10:18:41;7.13;;;5.55;;
6463;SDS011;3265;42.694;23.282;2023-05-07T10:21:11;6.57;;;5.18;;
6463;SDS011;3265;42.694;23.282;2023-05-07T10:23:41;7.65;;;4.32;;
6463;SDS011;3265;42.694;23.282;2023-05-07T10:26:11;7.82;;;4.00;;
6463;SDS011;3265;42.694;23.282;2023-05-07T10:28:40;6.68;;;4.43;;
6463;SDS011;3265;42.694;23.282;2023-05-07T10:31:23;6.13;;;4.47;;
6463;SDS011;3265;42.694;23.282;2023-05-07T10:34:19;7.18;;;4.65;;
6463;SDS011;3265;42.694;23.282;2023-05-07T10:36:50;6.68;;;4.45;;
6463;SDS011;3265;42.694;23.282;2023-05-07T10:39:19;8.25;;;3.95;;
6463;SDS011;3265;42.694;23.282;2023-05-07T10:41:46;5.78;;;4.30;;
6463;SDS011;3265;42.694;23.282;2023-05-07T10:44:24;6.35;;;5.28;;
6463;SDS011;3265;42.694;23.282;2023-05-07T10:47:07;8.23;;;4.88;;
6463;SDS011;3265;42.694;23.282;2023-05-07T10:49:35;7.18;;;4.82;;
6463;SDS011;3265;42.694;23.282;2023-05-07T10:52:13;5.00;;;4.53;;
6463;SDS011;3265;42.694;23.282;2023-05-07T10:54:41;8.70;;;5.00;;
6463;SDS011;3265;42.694;23.282;2023-05-07T11:00:01;5.43;;;4.53;;
6463;SDS011;3265;42.694;23.282;2023-05-07T11:05:34;6.95;;;4.50;;
6463;SDS011;3265;42.694;23.282;2023-05-07T11:08:02;7.97;;;4.78;;
6463;SDS011;3265;42.694;23.282;2023-05-07T11:16:16;8.05;;;4.70;;
6463;SDS011;3265;42.694;23.282;2023-05-07T11:18:49;6.53;;;4.22;;
6463;SDS011;3265;42.694;23.282;2023-05-07T11:21:33;5.22;;;4.20;;
6463;SDS011;3265;42.694;23.282;2023-05-07T11:24:01;7.93;;;4.38;;
6463;SDS011;3265;42.694;23.282;2023-05-07T11:26:29;6.88;;;4.45;;
6463;SDS011;3265;42.694;23.282;2023-05-07T11:28:57;4.35;;;3.78;;
6463;SDS011;3265;42.694;23.282;2023-05-07T11:31:26;4.80;;;3.58;;
6463;SDS011;3265;42.694;23.282;2023-05-07T11:33:56;4.18;;;3.35;;
6463;SDS011;3265;42.694;23.282;2023-05-07T11:36:24;4.30;;;3.20;;
6463;SDS011;3265;42.694;23.282;2023-05-07T11:38:52;4.28;;;3.50;;
6463;SDS011;3265;42.694;23.282;2023-05-07T11:41:18;5.60;;;3.70;;
6463;SDS011;3265;42.694;23.282;2023-05-07T11:43:55;4.63;;;3.28;;
6463;SDS011;3265;42.694;23.282;2023-05-07T11:46:26;4.72;;;4.25;;
6463;SDS011;3265;42.694;23.282;2023-05-07T11:48:54;5.03;;;4.32;;
6463;SDS011;3265;42.694;23.282;2023-05-07T11:51:23;4.88;;;3.75;;
6463;SDS011;3265;42.694;23.282;2023-05-07T11:53:51;5.18;;;4.10;;
6463;SDS011;3265;42.694;23.282;2023-05-07T11:56:19;5.53;;;4.00;;
6463;SDS011;3265;42.694;23.282;2023-05-07T11:58:46;5.75;;;3.88;;
6463;SDS011;3265;42.694;23.282;2023-05-07T12:01:15;7.22;;;4.05;;
6463;SDS011;3265;42.694;23.282;2023-05-07T12:03:45;5.50;;;4.10;;
6463;SDS011;3265;42.694;23.282;2023-05-07T12:06:15;5.82;;;4.40;;
6463;SDS011;3265;42.694;23.282;2023-05-07T12:08:43;7.20;;;3.40;;
6463;SDS011;3265;42.694;23.282;2023-05-07T12:11:13;5.57;;;3.03;;
6463;SDS011;3265;42.694;23.282;2023-05-07T12:13:42;3.40;;;2.80;;
6463;SDS011;3265;42.694;23.282;2023-05-07T12:16:10;5.13;;;3.10;;
6463;SDS011;3265;42.694;23.282;2023-05-07T12:18:37;4.93;;;3.40;;
6463;SDS011;3265;42.694;23.282;2023-05-07T12:21:05;4.40;;;3.13;;
6463;SDS011;3265;42.694;23.282;2023-05-07T12:23:35;5.18;;;3.38;;
6463;SDS011;3265;42.694;23.282;2023-05-07T12:26:03;10.07;;;3.88;;
6463;SDS011;3265;42.694;23.282;2023-05-07T12:28:30;6.95;;;5.00;;
6463;SDS011;3265;42.694;23.282;2023-05-07T12:31:02;14.50;;;4.82;;
6463;SDS011;3265;42.694;23.282;2023-05-07T12:33:28;5.15;;;3.30;;
6463;SDS011;3265;42.694;23.282;2023-05-07T12:35:56;6.55;;;3.97;;
6463;SDS011;3265;42.694;23.282;2023-05-07T12:38:23;6.88;;;3.85;;
6463;SDS011;3265;42.694;23.282;2023-05-07T12:40:53;4.30;;;3.47;;
6463;SDS011;3265;42.694;23.282;2023-05-07T12:43:21;7.30;;;3.33;;
6463;SDS011;3265;42.694;23.282;2023-05-07T12:45:51;3.35;;;3.05;;
6463;SDS011;3265;42.694;23.282;2023-05-07T12:48:21;6.43;;;3.45;;
6463;SDS011;3265;42.694;23.282;2023-05-07T12:50:51;3.90;;;3.22;;
6463;SDS011;3265;42.694;23.282;2023-05-07T12:53:20;4.28;;;3.10;;
6463;SDS011;3265;42.694;23.282;2023-05-07T12:55:49;4.05;;;3.30;;
6463;SDS011;3265;42.694;23.282;2023-05-07T12:58:18;4.25;;;3.28;;
6463;SDS011;3265;42.694;23.282;2023-05-07T13:00:47;3.30;;;3.00;;
6463;SDS011;3265;42.694;23.282;2023-05-07T13:03:20;7.22;;;3.67;;
6463;SDS011;3265;42.694;23.282;2023-05-07T13:05:49;4.82;;;3.00;;
6463;SDS011;3265;42.694;23.282;2023-05-07T13:08:29;7.32;;;3.95;;
6463;SDS011;3265;42.694;23.282;2023-05-07T13:10:57;4.00;;;3.60;;
6463;SDS011;3265;42.694;23.282;2023-05-07T13:13:29;6.15;;;3.45;;
6463;SDS011;3265;42.694;23.282;2023-05-07T13:15:56;3.70;;;3.05;;
6463;SDS011;3265;42.694;23.282;2023-05-07T13:18:24;6.07;;;3.45;;
6463;SDS011;3265;42.694;23.282;2023-05-07T13:20:52;4.90;;;3.30;;
6463;SDS011;3265;42.694;23.282;2023-05-07T13:23:18;4.72;;;3.50;;
6463;SDS011;3265;42.694;23.282;2023-05-07T13:25:45;4.15;;;3.28;;
6463;SDS011;3265;42.694;23.282;2023-05-07T13:28:12;4.03;;;3.47;;
6463;SDS011;3265;42.694;23.282;2023-05-07T13:30:40;4.68;;;3.20;;
6463;SDS011;3265;42.694;23.282;2023-05-07T13:33:08;4.20;;;3.50;;
6463;SDS011;3265;42.694;23.282;2023-05-07T13:35:35;3.78;;;3.10;;
6463;SDS011;3265;42.694;23.282;2023-05-07T13:38:02;3.67;;;3.30;;
6463;SDS011;3265;42.694;23.282;2023-05-07T13:40:29;3.35;;;3.05;;
6463;SDS011;3265;42.694;23.282;2023-05-07T13:42:56;3.60;;;3.10;;
6463;SDS011;3265;42.694;23.282;2023-05-07T13:45:24;4.13;;;3.50;;
6463;SDS011;3265;42.694;23.282;2023-05-07T13:47:53;3.65;;;3.13;;
6463;SDS011;3265;42.694;23.282;2023-05-07T13:50:20;5.40;;;3.30;;
6463;SDS011;3265;42.694;23.282;2023-05-07T13:52:46;4.32;;;3.22;;
6463;SDS011;3265;42.694;23.282;2023-05-07T13:55:16;5.05;;;3.13;;
6463;SDS011;3265;42.694;23.282;2023-05-07T13:57:54;6.45;;;3.20;;
6463;SDS011;3265;42.694;23.282;2023-05-07T14:00:22;4.88;;;3.40;;
6463;SDS011;3265;42.694;23.282;2023-05-07T14:02:49;3.45;;;3.08;;
6463;SDS011;3265;42.694;23.282;2023-05-07T14:05:18;4.28;;;3.55;;
6463;SDS011;3265;42.694;23.282;2023-05-07T14:07:45;5.43;;;3.40;;
6463;SDS011;3265;42.694;23.282;2023-05-07T14:10:12;3.75;;;3.35;;
6463;SDS011;3265;42.694;23.282;2023-05-07T14:12:39;5.97;;;3.17;;
6463;SDS011;3265;42.694;23.282;2023-05-07T14:15:14;5.78;;;3.50;;
6463;SDS011;3265;42.694;23.282;2023-05-07T14:18:06;4.88;;;3.60;;
6463;SDS011;3265;42.694;23.282;2023-05-07T14:20:37;4.10;;;3.53;;
6463;SDS011;3265;42.694;23.282;2023-05-07T14:23:06;4.63;;;3.53;;
6463;SDS011;3265;42.694;23.282;2023-05-07T14:25:33;5.50;;;3.38;;
6463;SDS011;3265;42.694;23.282;2023-05-07T14:28:01;3.63;;;3.30;;
6463;SDS011;3265;42.694;23.282;2023-05-07T14:30:28;3.50;;;3.20;;
6463;SDS011;3265;42.694;23.282;2023-05-07T14:32:55;3.92;;;2.97;;
6463;SDS011;3265;42.694;23.282;2023-05-07T14:35:25;4.97;;;3.30;;
6463;SDS011;3265;42.694;23.282;2023-05-07T14:37:56;4.10;;;3.45;;
6463;SDS011;3265;42.694;23.282;2023-05-07T14:40:23;7.70;;;3.20;;
6463;SDS011;3265;42.694;23.282;2023-05-07T14:42:50;4.32;;;3.50;;
6463;SDS011;3265;42.694;23.282;2023-05-07T14:45:17;5.07;;;3.53;;
6463;SDS011;3265;42.694;23.282;2023-05-07T14:47:46;4.15;;;3.30;;
6463;SDS011;3265;42.694;23.282;2023-05-07T14:50:15;4.22;;;3.30;;
6463;SDS011;3265;42.694;23.282;2023-05-07T14:52:43;5.45;;;3.25;;
6463;SDS011;3265;42.694;23.282;2023-05-07T14:55:11;4.50;;;3.25;;
6463;SDS011;3265;42.694;23.282;2023-05-07T14:57:38;3.22;;;2.90;;
6463;SDS011;3265;42.694;23.282;2023-05-07T15:00:06;5.95;;;3.78;;
6463;SDS011;3265;42.694;23.282;2023-05-07T15:02:34;6.47;;;3.78;;
6463;SDS011;3265;42.694;23.282;2023-05-07T15:05:02;4.38;;;3.45;;
6463;SDS011;3265;42.694;23.282;2023-05-07T15:07:29;6.78;;;3.78;;